METAR Data
IDs: Format: Raw Decoded Include TAF

Data at: 1705 UTC 16 Oct 2021

KLNC 161655Z AUTO 36005KT 10SM CLR 19/03 A3040 RMK AO2 T01890034
KLNC 161635Z AUTO 36005KT 10SM CLR 19/05 A3040 RMK AO2 T01860045
KLNC 161615Z AUTO 36007KT 10SM CLR 18/05 A3040 RMK AO2 T01800045
KLNC 161555Z AUTO 01007KT 10SM CLR 18/05 A3040 RMK AO2 T01750051
KLNC 161535Z AUTO 03005KT 10SM CLR 17/06 A3040 RMK AO2 T01690060
KLNC 161515Z AUTO 04006KT 10SM CLR 16/06 A3040 RMK AO2 T01640061
KLNC 161455Z AUTO 35004KT 10SM CLR 15/07 A3040 RMK AO2 T01530069
KLNC 161435Z AUTO 36005KT 10SM CLR 15/08 A3039 RMK AO2 T01460076
KLNC 161415Z AUTO 34005KT 10SM CLR 14/07 A3038 RMK AO2 T01370070
KLNC 161355Z AUTO 32004KT 10SM CLR 13/07 A3038 RMK AO2 T01290071
KLNC 161335Z AUTO 33003KT 10SM CLR 12/08 A3037 RMK AO2 T01150075
KLNC 161315Z AUTO 32005KT 10SM CLR 11/07 A3036 RMK AO2 T01070071
KLNC 161255Z AUTO 32004KT 10SM CLR 10/07 A3035 RMK AO2 T01020071
KLNC 161235Z AUTO 32004KT 10SM CLR 10/07 A3034 RMK AO2 T01030072
KLNC 161215Z AUTO 32004KT 10SM CLR 11/07 A3034 RMK AO2 T01080071
KLNC 161155Z AUTO 32005KT 10SM CLR 11/08 A3034 RMK AO2 T01070075 10139 20104
KLNC 161135Z AUTO 31005KT 10SM CLR 11/08 A3033 RMK AO2 T01070075
KLNC 161115Z AUTO 31004KT 10SM CLR 11/08 A3033 RMK AO2 T01080075
KLNC 161055Z AUTO 31004KT 10SM CLR 11/08 A3032 RMK AO2 T01070076
KLNC 161035Z AUTO 32004KT 10SM CLR 11/08 A3032 RMK AO2 T01100077
KLNC 161015Z AUTO 00000KT 10SM CLR 11/08 A3031 RMK AO2 T01120076
KLNC 160955Z AUTO 31004KT 10SM CLR 12/08 A3032 RMK AO2 T01150076
KLNC 160935Z AUTO 32004KT 10SM CLR 12/08 A3031 RMK AO2 T01150076
KLNC 160915Z AUTO 32004KT 10SM CLR 12/08 A3031 RMK AO2 T01170075
KLNC 160855Z AUTO 32005KT 10SM CLR 12/07 A3031 RMK AO2 T01210073
KLNC 160835Z AUTO 32005KT 10SM CLR 12/07 A3030 RMK AO2 T01220074
KLNC 160815Z AUTO 32006KT 10SM CLR 12/08 A3030 RMK AO2 T01220077
KLNC 160755Z AUTO 34005KT 10SM CLR 13/08 A3031 RMK AO2 T01330075
KLNC 160735Z AUTO 34005KT 10SM CLR 13/08 A3030 RMK AO2 T01290077
KLNC 160715Z AUTO 34005KT 10SM CLR 13/08 A3030 RMK AO2 T01300079
KLNC 160655Z AUTO 35005KT 10SM CLR 13/08 A3030 RMK AO2 T01280081
KLNC 160635Z AUTO 34004KT 10SM CLR 13/08 A3029 RMK AO2 T01300081
KLNC 160615Z AUTO 35006KT 10SM CLR 13/08 A3028 RMK AO2 T01300080
KLNC 160555Z AUTO 34003KT 10SM CLR 13/08 A3028 RMK AO2 T01340081 10203 20132 402490132
KLNC 160535Z AUTO 34005KT 10SM CLR 14/08 A3027 RMK AO2 T01350081
KLNC 160515Z AUTO 34004KT 10SM CLR 14/08 A3027 RMK AO2 T01400082
KLNC 160455Z AUTO 34006KT 10SM CLR 15/08 A3026 RMK AO2 T01480075
KLNC 160435Z AUTO 34006KT 10SM CLR 15/08 A3025 RMK AO2 T01480080
KLNC 160415Z AUTO 34007KT 10SM CLR 15/08 A3025 RMK AO2 T01510077
KLNC 160355Z AUTO 35008KT 10SM CLR 16/08 A3024 RMK AO2 T01560076
KLNC 160335Z AUTO 35009KT 10SM CLR 16/08 A3023 RMK AO2 T01600076
KLNC 160315Z AUTO 36009KT 10SM CLR 17/07 A3021 RMK AO2 T01650074
KLNC 160255Z AUTO 36010KT 10SM CLR 17/07 A3020 RMK AO2 T01700073
KLNC 160235Z AUTO 35009KT 10SM CLR 17/08 A3020 RMK AO2 T01720079
KLNC 160215Z AUTO 35010KT 10SM CLR 18/08 A3019 RMK AO2 T01750080
KLNC 160155Z AUTO 35010KT 10SM CLR 18/08 A3018 RMK AO2 T01760082
KLNC 160135Z AUTO 35009G15KT 10SM CLR 18/08 A3017 RMK AO2 T01800084
KLNC 160115Z AUTO 36008KT 10SM CLR 18/09 A3016 RMK AO2 T01810088
KLNC 160055Z AUTO 36008KT 10SM CLR 19/09 A3015 RMK AO2 T01850092
KLNC 160035Z AUTO 35010KT 10SM CLR 19/09 A3013 RMK AO2 T01910093
KLNC 160015Z AUTO 35011G17KT 10SM CLR 20/10 A3012 RMK AO2 T01950097
KLNC 152355Z AUTO 35013KT 10SM CLR 20/10 A3011 RMK AO2 T02040104 10239 20204
KLNC 152335Z AUTO 35011G15KT 10SM CLR 21/12 A3010 RMK AO2 T02080116
KLNC 152315Z AUTO 35014G19KT 10SM CLR 22/11 A3009 RMK AO2 T02170114
KLNC 152255Z AUTO 34011G15KT 10SM CLR 22/12 A3008 RMK AO2 T02210124
KLNC 152235Z AUTO 36015G21KT 10SM CLR 23/12 A3007 RMK AO2 T02250119
KLNC 152215Z AUTO 33014G21KT 10SM CLR 23/13 A3007 RMK AO2 T02260131
KLNC 152155Z AUTO 35016G21KT 10SM CLR 23/14 A3006 RMK AO2 T02280137
KLNC 152135Z AUTO 34015KT 10SM CLR 23/14 A3006 RMK AO2 T02270142
KLNC 152115Z AUTO 34017KT 10SM SCT038 23/15 A3005 RMK AO2 T02280149
KLNC 152055Z AUTO 34014G18KT 10SM SCT034 23/15 A3005 RMK AO2 T02270154
KLNC 152035Z AUTO 34013KT 10SM BKN032 22/15 A3005 RMK AO2 T02210153
KLNC 152015Z AUTO 34014G18KT 10SM OVC030 23/16 A3004 RMK AO2 T02250162
KLNC 151955Z AUTO 33015G20KT 10SM OVC026 22/16 A3003 RMK AO2 T02190164
KLNC 151935Z AUTO 32017G21KT 10SM BKN026 BKN033 23/17 A3003 RMK AO2 T02250173
KLNC 151915Z AUTO 32018G21KT 10SM SCT026 SCT033 23/18 A3002 RMK AO2 T02300175
KLNC 151855Z AUTO 33014G21KT 10SM SCT025 SCT030 23/18 A3002 RMK AO2 T02330178
KLNC 151835Z AUTO 31013G19KT 10SM SCT025 SCT033 24/19 A3002 RMK AO2 T02360185
KLNC 151815Z AUTO 31014KT 10SM SCT021 SCT028 BKN034 24/18 A3002 RMK AO2 T02350183
KLNC 151755Z AUTO 30013G19KT 10SM SCT021 BKN028 OVC034 23/18 A3002 RMK AO2 T02330184 10249 20210
KLNC 151735Z AUTO 31012G18KT 10SM SCT021 OVC032 23/19 A3001 RMK AO2 T02310185
KLNC 151715Z AUTO 30016G23KT 10SM SCT021 OVC032 24/19 A3001 RMK AO2 T02350185
KLNC 151655Z AUTO 29012G18KT 10SM SCT023 OVC031 24/19 A3000 RMK AO2 T02350186
KLNC 151635Z AUTO 29008G17KT 10SM BKN024 OVC030 24/19 A2999 RMK AO2 T02400190
KLNC 151615Z AUTO 28010KT 10SM BKN024 BKN029 25/19 A2998 RMK AO2 T02480194
KLNC 151555Z AUTO 28007KT 10SM SCT018 BKN025 OVC030 24/20 A2997 RMK AO2 T02420201
KLNC 151535Z AUTO 26006KT 10SM BKN018 BKN024 23/21 A2997 RMK AO2 T02340205
KLNC 151515Z AUTO 26004KT 10SM BKN017 BKN023 23/21 A2996 RMK AO2 T02290210
KLNC 151455Z AUTO 24005KT 10SM OVC014 22/21 A2995 RMK AO2 T02210206
KLNC 151435Z AUTO 26006KT 10SM OVC010 22/21 A2995 RMK AO2 T02170205
KLNC 151415Z AUTO 24007KT 10SM OVC007 22/21 A2994 RMK AO2 T02160207
KLNC 151355Z AUTO 21006KT 10SM OVC007 21/21 A2992 RMK AO2 T02140207
KLNC 151335Z AUTO 19008KT 5SM BR OVC005 21/21 A2991 RMK AO2 T02120206
KLNC 151315Z AUTO 19007KT 4SM BR OVC003 21/21 A2990 RMK AO2 T02100205
KLNC 151255Z AUTO 16006KT 5SM BR OVC003 21/21 A2989 RMK AO2 T02100205
KLNC 151235Z AUTO 17005KT 5SM BR OVC003 21/21 A2989 RMK AO2 T02100205
KLNC 151215Z AUTO 17005KT 5SM BR OVC003 21/21 A2989 RMK AO2 T02100205
KLNC 151155Z AUTO 19003KT 4SM BR OVC003 21/20 A2989 RMK AO2 T02100203 10211 20202
KLNC 151135Z AUTO 18004KT 5SM BR OVC003 21/20 A2989 RMK AO2 T02080202
KLNC 151115Z AUTO 21005KT 7SM OVC003 21/20 A2988 RMK AO2 T02050200
KLNC 151055Z AUTO 00000KT 7SM BKN003 20/20 A2987 RMK AO2 T02040197
KLNC 151035Z AUTO 17003KT 7SM CLR 20/20 A2987 RMK AO2 T02020196
KLNC 151015Z AUTO 18003KT 10SM CLR 21/20 A2986 RMK AO2 T02050197
KLNC 150955Z AUTO 00000KT 10SM CLR 21/20 A2986 RMK AO2 T02050198
KLNC 150935Z AUTO 19004KT 10SM CLR 21/20 A2986 RMK AO2 T02070200
KLNC 150915Z AUTO 20003KT 10SM CLR 21/20 A2985 RMK AO2 T02070200
KLNC 150855Z AUTO 20003KT 10SM CLR 21/20 A2985 RMK AO2 T02100201
KLNC 150835Z AUTO 20003KT 10SM CLR 21/20 A2985 RMK AO2 T02100201
KLNC 150815Z AUTO 18004KT 10SM CLR 21/20 A2985 RMK AO2 T02100202
KLNC 150755Z AUTO 16006KT 10SM CLR 21/20 A2985 RMK AO2 T02100203
KLNC 150735Z AUTO 16006KT 10SM CLR 21/20 A2985 RMK AO2 T02100202
KLNC 150715Z AUTO 16006KT 10SM CLR 21/20 A2985 RMK AO2 T02100203
KLNC 150655Z AUTO 16004KT 10SM CLR 21/20 A2986 RMK AO2 T02100202
KLNC 150635Z AUTO 17004KT 10SM CLR 21/20 A2986 RMK AO2 T02100202
KLNC 150615Z AUTO 16006KT 10SM CLR 21/20 A2986 RMK AO2 T02100202
KLNC 150555Z AUTO 15004KT 10SM CLR 21/20 A2986 RMK AO2 T02100202 10264 20210 402840188
KLNC 150535Z AUTO 16004KT 10SM CLR 21/20 A2987 RMK AO2 T02110203
KLNC 150515Z AUTO 16004KT 10SM CLR 21/20 A2987 RMK AO2 T02120203